Aviation Digital Data Service (ADDS)

Output produced by METARs form (0702 UTC 30 July 2014)
found at http://www.aviationweather.gov/adds/metars/
 
KIPT 300654Z AUTO 00000KT 10SM CLR 13/12 A3000 RMK AO2 SLP158 T01330117
KIPT 300554Z AUTO 00000KT 10SM CLR 14/12 A3000 RMK AO2 SLP157 T01390117 10183 20139 50001
KIPT 300454Z AUTO 00000KT 10SM OVC090 16/13 A3000 RMK AO2 SLP157 T01560128 402220150
KIPT 300354Z AUTO 33003KT 10SM FEW060 SCT070 OVC090 16/12 A3000 RMK AO2 SLP155 T01610122
KIPT 300254Z AUTO 33003KT 10SM OVC065 17/13 A3000 RMK AO2 SLP155 T01670128 51009
KIPT 300154Z 00000KT 10SM FEW070 OVC090 17/12 A3000 RMK AO2 SLP156 T01720122
KIPT 300054Z 00000KT 10SM OVC085 18/11 A2998 RMK AO2 SLP150 T01780106
KIPT 292354Z 26006KT 10SM CLR 18/10 A2997 RMK AO2 SLP147 T01830100 10222 20183 51011
KIPT 292254Z 25007KT 10SM SCT080 20/10 A2996 RMK AO2 SLP145 T02000100
KIPT 292154Z 25008KT 10SM OVC080 21/10 A2995 RMK AO2 SLP139 T02060100
KIPT 292054Z 27003KT 10SM OVC075 21/08 A2994 RMK AO2 SLP135 T02110078 51006
KIPT 291954Z 32007KT 10SM OVC070 21/08 A2993 RMK AO2 SLP134 T02110083
KIPT 291854Z 29009KT 10SM OVC070 21/08 A2993 RMK AO2 SLP131 T02110078
KIPT 291754Z 36008KT 10SM OVC065 21/08 A2992 RMK AO2 SLP129 T02110078 10222 20161 56004
KIPT 291654Z 29005KT 10SM BKN060 21/08 A2992 RMK AO2 SLP129 T02110078
KIPT 291554Z 29008KT 10SM FEW035 FEW042 OVC060 21/11 A2992 RMK AO2 SLP129 T02110106
KIPT 291454Z 29008KT 10SM SCT028 20/11 A2993 RMK AO2 SLP133 T02000111 51007
KIPT 291427Z 25007KT 10SM BKN028 19/11 A2993 RMK AO2 T01890111
KIPT 291354Z 27007KT 10SM SCT025 18/11 A2993 RMK AO2 SLP132 T01830106
KIPT 291254Z 31009KT 10SM SCT029 18/11 A2992 RMK AO2 SLP130 T01780106
KIPT 291154Z 26009KT 10SM FEW029 FEW070 16/11 A2991 RMK AO2 SLP125 70022 T01610106 10167 20150 53019
KIPT 291147Z 28007KT 10SM SCT029 SCT070 17/11 A2990 RMK AO2 T01670111
KIPT 291054Z 28006KT 10SM OVC026 16/11 A2989 RMK AO2 SLP119 T01560111
KIPT 290954Z AUTO 27007KT 10SM BKN028 OVC070 16/11 A2986 RMK AO2 SLP111 T01560111
KIPT 290854Z AUTO 27006KT 10SM OVC028 16/12 A2985 RMK AO2 SLP106 T01610122 53007
KIPT 290754Z AUTO 31003KT 10SM OVC028 16/13 A2983 RMK AO2 SLP099 T01610128
KIPT 290704Z AUTO VRB06KT 10SM BKN026 OVC033 16/13 A2983 RMK AO2 T01610128
KIPT 290654Z AUTO 27008KT 10SM BKN031 16/13 A2982 RMK AO2 SLP098 T01560128
KIPT 290554Z AUTO 28005KT 10SM BKN037 16/12 A2983 RMK AO2 SLP098 T01560117 10200 20150 51003
KIPT 290454Z AUTO 28004KT 10SM SCT029 BKN037 16/12 A2983 RMK AO2 SLP098 T01610117 402610161
KIPT 290354Z AUTO 28007KT 10SM SCT030 17/12 A2983 RMK AO2 SLP099 T01720117
KIPT 290254Z AUTO 28007KT 10SM BKN032 OVC080 18/12 A2982 RMK AO2 SLP094 T01830117 51021
KIPT 290154Z 28009KT 10SM BKN035 OVC044 18/12 A2980 RMK AO2 SLP089 T01830122
KIPT 290054Z 29009KT 10SM OVC038 19/12 A2977 RMK AO2 SLP080 T01940122
KIPT 282354Z 33009KT 10SM OVC039 20/12 A2975 RMK AO2 SLP073 60022 T02000122 10256 20189 53033
KIPT 282254Z 32009G20KT 10SM BKN041 OVC050 21/13 A2972 RMK AO2 SLP060 T02060128
KIPT 282154Z 33009KT 10SM BKN038 BKN047 OVC100 22/14 A2969 RMK AO2 SLP050 T02170144
KIPT 282054Z 33009KT 10SM SCT034 BKN046 BKN060 22/17 A2966 RMK AO2 SLP040 60022 T02220167 53017
KIPT 281954Z 26008KT 10SM FEW035 SCT090 BKN110 20/16 A2962 RMK AO2 RAB05E43 SLP029 P0003 T02000161
KIPT 281929Z 25008KT 10SM -RA FEW075 OVC100 19/17 A2961 RMK AO2 LTG DSNT E RAB05 P0003 T01940167